Time;durP1;ratioP1;P1;durP2;ratioP2;P2;SDS_P1;SDS_P2;PMS_P1;PMS_P2;Temp;Humidity;BMP_temperature;BMP_pressure;BME280_temperature;BME280_humidity;BME280_pressure;Samples;Min_cycle;Max_cycle;Signal;HPM_P1;HPM_P2
2020/12/11 00:01:37;;;;;;;43.95;26.60;;;;;;;0.41;80.19;100769.56;1716830;83;21273;-74
2020/12/11 00:04:07;;;;;;;40.10;25.05;;;;;;;0.39;80.29;100768.16;1716925;83;21226;-74
2020/12/11 00:06:35;;;;;;;40.83;25.57;;;;;;;0.40;80.32;100769.97;1722015;83;22797;-75
2020/12/11 00:09:06;;;;;;;40.35;25.08;;;;;;;0.40;80.36;100772.56;1725019;83;21254;-75
2020/12/11 00:11:38;;;;;;;;;;;;;;;0.39;80.39;100759.09;1727630;83;21202;-75
2020/12/11 00:14:07;;;;;;;41.00;24.52;;;;;;;0.41;80.50;100756.61;1685252;84;20304;-75
2020/12/11 00:16:38;;;;;;;45.85;25.85;;;;;;;0.41;80.45;100752.73;1725227;83;21223;-75
2020/12/11 00:19:12;;;;;;;41.63;26.50;;;;;;;0.40;80.44;100756.13;1725178;83;21892;-76
2020/12/11 00:21:48;;;;;;;43.83;27.48;;;;;;;0.40;80.45;100756.13;1724741;83;21150;-76
2020/12/11 00:24:17;;;;;;;41.42;26.52;;;;;;;0.42;80.58;100759.72;1725108;83;21163;-76
2020/12/11 00:26:45;;;;;;;46.33;27.00;;;;;;;0.43;80.55;100747.25;1725054;83;21687;-76
2020/12/11 00:29:14;;;;;;;41.55;25.90;;;;;;;0.43;80.58;100748.14;1720715;83;21178;-75
2020/12/11 00:31:48;;;;;;;43.13;26.33;;;;;;;0.42;80.58;100750.66;1725142;82;21896;-76
2020/12/11 00:34:17;;;;;;;42.78;25.12;;;;;;;0.45;80.65;100753.42;1725060;83;21195;-75
2020/12/11 00:36:48;;;;;;;40.12;25.15;;;;;;;0.45;80.65;100758.60;1725199;82;21197;-75
2020/12/11 00:39:18;;;;;;;42.40;25.75;;;;;;;0.43;80.63;100758.91;1725181;83;21253;-75
2020/12/11 00:41:45;;;;;;;38.65;24.47;;;;;;;0.44;80.71;100757.72;1721528;83;21249;-75
2020/12/11 00:44:17;;;;;;;42.62;26.10;;;;;;;0.44;80.77;100755.13;1720811;83;21889;-75
2020/12/11 00:46:51;;;;;;;40.28;25.23;;;;;;;0.45;80.75;100753.05;1720943;83;21174;-75
2020/12/11 00:49:28;;;;;;;45.78;27.95;;;;;;;0.47;80.83;100755.34;1720936;83;21132;-77
2020/12/11 00:52:06;;;;;;;48.50;29.27;;;;;;;0.51;80.82;100748.67;1720807;83;21084;-77
2020/12/11 00:54:40;;;;;;;44.67;28.40;;;;;;;0.49;80.79;100745.05;1720923;83;21186;-77
2020/12/11 00:57:18;;;;;;;49.70;31.17;;;;;;;0.48;80.76;100749.34;1719835;82;21143;-77
2020/12/11 00:59:58;;;;;;;48.13;29.77;;;;;;;0.48;80.80;100748.05;1720636;83;21672;-77
2020/12/11 01:02:32;;;;;;;50.48;30.97;;;;;;;0.46;80.80;100745.76;1720827;83;21479;-77
2020/12/11 01:05:18;;;;;;;47.38;28.98;;;;;;;0.43;80.80;100740.77;1720902;83;21096;-77
2020/12/11 01:07:57;;;;;;;45.92;28.70;;;;;;;0.43;80.90;100735.19;1719533;82;21213;-76
2020/12/11 01:10:30;;;;;;;51.45;29.55;;;;;;;0.45;80.92;100740.47;1720625;83;23078;-76
2020/12/11 01:13:01;;;;;;;46.20;29.20;;;;;;;0.43;80.94;100744.25;1696308;83;21506;-76
2020/12/11 01:15:29;;;;;;;41.50;26.77;;;;;;;0.45;80.96;100745.66;1720536;83;21167;-75
2020/12/11 01:17:56;;;;;;;48.75;28.15;;;;;;;0.46;80.99;100747.05;1720626;83;21179;-75
2020/12/11 01:20:26;;;;;;;40.95;25.97;;;;;;;0.45;80.96;100742.69;1720721;83;21182;-81
2020/12/11 01:22:54;;;;;;;44.65;27.55;;;;;;;0.41;80.90;100747.55;1720405;83;22095;-75
2020/12/11 01:25:31;;;;;;;44.33;27.05;;;;;;;0.41;81.01;100748.84;1720902;83;21199;-75
2020/12/11 01:28:10;;;;;;;44.05;27.93;;;;;;;0.41;81.02;100749.73;1721030;83;21206;-75
2020/12/11 01:30:43;;;;;;;43.28;26.45;;;;;;;0.40;81.01;100743.19;1720653;83;21679;-75
2020/12/11 01:33:14;;;;;;;43.85;26.45;;;;;;;0.36;81.05;100740.38;1720924;83;21138;-75
2020/12/11 01:35:44;;;;;;;45.25;27.77;;;;;;;0.35;81.09;100750.23;1721026;83;21907;-76
2020/12/11 01:38:11;;;;;;;44.25;27.30;;;;;;;0.38;81.19;100749.55;1720886;83;21210;-75
2020/12/11 01:40:38;;;;;;;42.45;27.42;;;;;;;0.42;81.22;100750.66;1725416;81;21207;-75
2020/12/11 01:43:06;;;;;;;46.90;28.15;;;;;;;0.41;81.17;100744.55;1737884;82;21235;-75
2020/12/11 01:45:35;;;;;;;44.60;27.95;;;;;;;0.42;81.21;100737.70;1737796;82;21531;-75
2020/12/11 01:48:07;;;;;;;45.10;28.05;;;;;;;0.41;81.19;100738.48;1735889;82;21683;-75
2020/12/11 01:50:36;;;;;;;47.38;29.45;;;;;;;0.42;81.21;100736.41;1737604;82;21589;-76
2020/12/11 01:53:09;;;;;;;42.40;28.17;;;;;;;0.43;81.23;100735.59;1737890;82;21131;-76
2020/12/11 01:55:44;;;;;;;44.13;27.05;;;;;;;0.45;81.21;100734.00;1714237;83;21226;-75
2020/12/11 01:58:19;;;;;;;48.17;29.45;;;;;;;0.45;81.23;100737.88;1713557;83;21251;-75
2020/12/11 02:01:00;;;;;;;47.33;27.87;;;;;;;0.42;81.24;100732.12;1714425;83;22804;-76
2020/12/11 02:03:34;;;;;;;49.18;27.45;;;;;;;0.45;81.24;100736.59;1714230;83;21211;-75
2020/12/11 02:06:05;;;;;;;49.05;28.92;;;;;;;0.42;81.23;100736.00;1714178;83;21491;-76
2020/12/11 02:08:34;;;;;;;48.40;29.90;;;;;;;0.42;81.24;100733.41;1714309;83;21195;-76
2020/12/11 02:11:27;;;;;;;47.78;28.20;;;;;;;0.42;81.29;100729.53;1714302;83;21506;-76
2020/12/11 02:14:07;;;;;;;49.08;28.32;;;;;;;0.43;81.28;100732.59;1714308;83;22903;-76
2020/12/11 02:16:39;;;;;;;46.45;27.25;;;;;;;0.38;81.23;100736.61;1713979;83;21369;-75
2020/12/11 02:19:13;;;;;;;46.40;28.32;;;;;;;0.37;81.35;100734.39;1712532;83;21215;-75
2020/12/11 02:21:45;;;;;;;46.85;28.95;;;;;;;0.42;81.46;100733.41;1714134;83;21673;-75
2020/12/11 02:24:24;;;;;;;44.08;28.38;;;;;;;0.42;81.44;100728.23;1686948;83;21171;-75
2020/12/11 02:27:06;;;;;;;46.80;28.42;;;;;;;0.45;81.42;100730.12;1714129;83;21702;-75
2020/12/11 02:29:52;;;;;;;47.45;29.52;;;;;;;0.45;81.35;100725.86;1714252;83;21191;-76
2020/12/11 02:32:47;;;;;;;43.90;27.80;;;;;;;0.43;81.35;100720.06;1710628;83;21632;-76
2020/12/11 02:35:17;;;;;;;47.60;28.17;;;;;;;0.44;81.34;100717.58;1713214;83;21230;-76
2020/12/11 02:37:59;;;;;;;52.35;30.95;;;;;;;0.46;81.42;100725.45;1714441;83;21242;-76
2020/12/11 02:40:42;;;;;;;51.13;30.43;;;;;;;0.48;81.41;100727.33;1714547;82;21884;-76
2020/12/11 02:43:37;;;;;;;49.77;29.85;;;;;;;0.44;81.29;100724.05;1702424;83;21772;-76
2020/12/11 02:46:10;;;;;;;50.85;28.52;;;;;;;0.43;81.36;100715.77;1716112;83;21290;-75
2020/12/11 02:48:52;;;;;;;51.40;29.02;;;;;;;0.48;81.43;100718.27;1717205;83;21594;-75
2020/12/11 02:51:19;;;;;;;50.28;29.70;;;;;;;0.49;81.42;100716.19;1717336;83;21151;-75
2020/12/11 02:53:50;;;;;;;49.40;27.58;;;;;;;0.51;81.41;100715.00;1717302;83;21871;-75
2020/12/11 02:56:27;;;;;;;50.78;29.82;;;;;;;0.51;81.36;100713.70;1717126;82;21231;-75
2020/12/11 02:59:12;;;;;;;51.80;30.60;;;;;;;0.51;81.41;100711.11;1714655;83;21077;-75
2020/12/11 03:01:51;;;;;;;43.35;27.87;;;;;;;0.52;81.28;100709.00;1717100;83;21242;-76
2020/12/11 03:04:23;;;;;;;47.03;29.72;;;;;;;0.49;81.31;100711.02;1717353;83;21210;-76
2020/12/11 03:06:50;;;;;;;50.05;31.55;;;;;;;0.49;81.35;100708.42;1717289;83;22999;-75
2020/12/11 03:09:26;;;;;;;49.98;30.20;;;;;;;0.50;81.37;100707.60;1717178;83;21175;-75
2020/12/11 03:12:16;;;;;;;51.53;29.57;;;;;;;0.49;81.30;100707.50;1716075;82;21566;-75
2020/12/11 03:15:05;;;;;;;50.48;29.42;;;;;;;0.46;81.28;100706.91;1716268;83;21239;-76
2020/12/11 03:17:44;;;;;;;49.08;30.23;;;;;;;0.48;81.39;100712.20;1717101;83;21567;-75
2020/12/11 03:20:28;;;;;;;52.62;29.50;;;;;;;0.46;81.38;100709.91;1716606;83;21514;-76
2020/12/11 03:23:07;;;;;;;43.38;27.32;;;;;;;0.47;81.45;100704.84;1715392;83;21599;-76
2020/12/11 03:25:47;;;;;;;45.33;28.85;;;;;;;0.51;81.45;100712.00;1717268;82;21198;-75
2020/12/11 03:28:18;;;;;;;50.35;30.75;;;;;;;0.49;81.39;100710.09;1716812;83;21147;-76
2020/12/11 03:30:51;;;;;;;48.42;29.02;;;;;;;0.49;81.41;100709.72;1717068;83;21649;-75
2020/12/11 03:33:18;;;;;;;50.35;29.07;;;;;;;0.49;81.43;100706.20;1717335;83;22152;-75
2020/12/11 03:35:45;;;;;;;46.37;27.70;;;;;;;0.50;81.42;100703.72;1716958;83;21753;-75
2020/12/11 03:38:12;;;;;;;50.52;29.48;;;;;;;0.50;81.40;100702.42;1717179;83;21613;-75
2020/12/11 03:40:49;;;;;;;42.03;26.68;;;;;;;0.47;81.40;100700.95;1717021;83;21752;-75
2020/12/11 03:43:17;;;;;;;50.70;29.65;;;;;;;0.50;81.40;100698.95;1729925;82;21214;-75
2020/12/11 03:45:44;;;;;;;51.05;28.92;;;;;;;0.48;81.36;100692.37;1730214;82;21984;-75
2020/12/11 03:48:11;;;;;;;47.45;28.62;;;;;;;0.48;81.42;100691.08;1729904;82;21669;-75
2020/12/11 03:50:38;;;;;;;47.98;29.63;;;;;;;0.49;81.50;100691.96;1730082;82;21160;-75
2020/12/11 03:53:05;;;;;;;48.60;27.45;;;;;;;0.52;81.53;100687.87;1730077;82;21259;-75
2020/12/11 03:55:32;;;;;;;45.43;28.73;;;;;;;0.50;81.44;100688.59;1730073;82;21569;-76
2020/12/11 03:57:59;;;;;;;45.38;28.98;;;;;;;0.49;81.54;100689.00;1729959;82;21938;-75
2020/12/11 04:00:26;;;;;;;43.30;27.73;;;;;;;0.52;81.54;100685.70;1730054;82;21206;-76
2020/12/11 04:02:53;;;;;;;46.50;28.50;;;;;;;0.50;81.43;100692.06;1730147;82;21234;-76
2020/12/11 04:05:20;;;;;;;50.95;30.30;;;;;;;0.51;81.58;100688.69;1730029;82;21193;-75
2020/12/11 04:07:48;;;;;;;48.75;29.45;;;;;;;0.51;81.54;100684.81;1730050;82;21198;-75
2020/12/11 04:10:17;;;;;;;44.48;28.23;;;;;;;0.51;81.54;100683.92;1730006;82;22864;-76
2020/12/11 04:12:43;;;;;;;47.88;29.92;;;;;;;0.52;81.61;100687.87;1729849;82;21238;-76
2020/12/11 04:15:10;;;;;;;49.35;29.20;;;;;;;0.51;81.60;100686.52;1730023;82;21166;-76
2020/12/11 04:17:37;;;;;;;51.42;30.20;;;;;;;0.54;81.66;100691.45;1729951;82;21255;-76
2020/12/11 04:20:04;;;;;;;55.75;31.42;;;;;;;0.54;81.60;100683.69;1730071;82;21143;-76
2020/12/11 04:22:32;;;;;;;50.73;29.67;;;;;;;0.53;81.66;100684.50;1730027;82;21872;-75
2020/12/11 04:25:05;;;;;;;52.13;29.02;;;;;;;0.54;81.66;100686.28;1729889;82;21593;-76
2020/12/11 04:27:34;;;;;;;54.03;30.23;;;;;;;0.55;81.65;100684.61;1743732;82;21151;-76
2020/12/11 04:30:01;;;;;;;49.40;30.72;;;;;;;0.53;81.62;100680.63;1748517;82;21060;-75
2020/12/11 04:32:36;;;;;;;52.95;31.25;;;;;;;0.53;81.67;100681.03;1748586;82;21155;-75
2020/12/11 04:35:06;;;;;;;53.00;31.07;;;;;;;0.54;81.71;100672.03;1726108;82;21107;-75
2020/12/11 04:37:39;;;;;;;58.02;32.03;;;;;;;0.56;81.70;100674.73;1729796;82;21186;-75
2020/12/11 04:40:15;;;;;;;58.60;31.15;;;;;;;0.56;81.71;100675.64;1729823;82;21155;-75
2020/12/11 04:42:49;;;;;;;64.00;32.10;;;;;;;0.57;81.78;100677.83;1740692;81;21692;-76
2020/12/11 04:45:24;;;;;;;69.97;33.90;;;;;;;0.59;81.79;100677.52;1737915;82;21231;-76
2020/12/11 04:47:59;;;;;;;73.47;34.60;;;;;;;0.56;81.79;100678.23;1714259;83;21904;-75
2020/12/11 04:50:34;;;;;;;70.40;36.53;;;;;;;0.54;81.84;100672.44;1714043;83;21591;-75
2020/12/11 04:53:02;;;;;;;72.35;34.92;;;;;;;0.52;81.96;100671.05;1714462;83;21148;-75
2020/12/11 04:55:35;;;;;;;72.53;35.15;;;;;;;0.55;82.12;100674.25;1714264;83;21582;-75
2020/12/11 04:58:05;;;;;;;73.45;33.45;;;;;;;0.57;82.20;100672.23;1714268;83;21128;-75
2020/12/11 05:00:35;;;;;;;72.75;35.55;;;;;;;0.56;82.16;100676.02;1713500;83;22040;-75
2020/12/11 05:03:04;;;;;;;77.95;38.65;;;;;;;0.52;82.26;100671.05;1726886;83;21139;-76
2020/12/11 05:05:31;;;;;;;72.08;38.05;;;;;;;0.54;82.42;100678.51;1724363;83;21176;-76
2020/12/11 05:07:58;;;;;;;74.45;35.33;;;;;;;0.55;82.47;100682.91;1714227;83;21136;-77
2020/12/11 05:10:25;;;;;;;71.72;34.85;;;;;;;0.57;82.57;100677.83;1714367;83;21216;-77
2020/12/11 05:12:52;;;;;;;70.30;34.27;;;;;;;0.53;82.56;100683.20;1714319;83;21964;-78
2020/12/11 05:15:22;;;;;;;73.45;36.53;;;;;;;0.52;82.67;100673.63;1714108;83;21172;-78
2020/12/11 05:17:49;;;;;;;73.02;36.77;;;;;;;0.51;82.68;100671.86;1714228;83;21211;-76
2020/12/11 05:20:16;;;;;;;75.65;37.20;;;;;;;0.50;82.71;100671.75;1714293;83;21201;-76
2020/12/11 05:22:43;;;;;;;76.07;37.83;;;;;;;0.48;82.81;100668.17;1703040;83;21941;-75
2020/12/11 05:25:13;;;;;;;71.07;37.33;;;;;;;0.50;82.94;100660.98;1697238;84;21926;-77
2020/12/11 05:27:46;;;;;;;75.85;36.35;;;;;;;0.49;82.98;100668.28;1697257;84;21233;-77
2020/12/11 05:30:18;;;;;;;75.65;36.50;;;;;;;0.50;83.03;100666.58;1697281;84;21226;-78
2020/12/11 05:32:57;;;;;;;75.67;37.93;;;;;;;0.50;83.10;100660.98;1697346;84;21295;-78
2020/12/11 05:35:26;;;;;;;77.87;38.67;;;;;;;0.50;83.14;100657.10;1697416;84;21174;-77
2020/12/11 05:38:05;;;;;;;77.37;41.63;;;;;;;0.51;83.24;100665.39;1697320;84;21972;-79
2020/12/11 05:40:43;;;;;;;87.65;43.20;;;;;;;0.49;83.24;100659.21;1697247;84;21203;-77
2020/12/11 05:43:22;;;;;;;89.22;44.23;;;;;;;0.50;83.41;100653.22;1693129;84;21198;-78
2020/12/11 05:45:57;;;;;;;86.63;42.83;;;;;;;0.49;83.34;100656.63;1690676;84;21226;-80
2020/12/11 05:48:36;;;;;;;78.02;42.05;;;;;;;0.51;83.40;100656.31;1690882;84;21618;-78
2020/12/11 05:51:13;;;;;;;90.90;42.38;;;;;;;0.51;83.53;100652.44;1690863;84;22892;-73
2020/12/11 05:53:40;;;;;;;85.62;40.83;;;;;;;0.55;83.53;100666.07;1690578;84;21164;-81
2020/12/11 05:56:07;;;;;;;82.90;39.78;;;;;;;0.55;83.49;100658.30;1690731;84;21183;-76
2020/12/11 05:58:34;;;;;;;83.97;41.40;;;;;;;0.61;83.61;100665.97;1690686;84;21174;-76
2020/12/11 06:01:02;;;;;;;90.50;41.48;;;;;;;0.61;83.55;100666.86;1690732;84;21191;-76
2020/12/11 06:03:29;;;;;;;77.08;38.88;;;;;;;0.64;83.59;100668.73;1690730;84;22662;-74
2020/12/11 06:05:57;;;;;;;80.25;39.35;;;;;;;0.68;83.60;100673.34;1690760;84;21636;-74
2020/12/11 06:08:28;;;;;;;88.75;40.35;;;;;;;0.74;83.67;100675.89;1691020;84;21641;-74
2020/12/11 06:10:57;;;;;;;90.10;39.63;;;;;;;0.78;83.63;100678.28;1690937;84;21238;-74
2020/12/11 06:13:28;;;;;;;90.77;41.30;;;;;;;0.84;83.63;100680.36;1690801;84;21183;-75
2020/12/11 06:15:55;;;;;;;98.00;40.80;;;;;;;0.86;83.61;100680.05;1690817;84;21905;-75
2020/12/11 06:18:27;;;;;;;95.53;40.52;;;;;;;0.87;83.60;100676.68;1688010;84;21589;-75
2020/12/11 06:20:54;;;;;;;85.22;39.38;;;;;;;0.84;83.42;100676.07;1690310;84;21187;-75
2020/12/11 06:23:29;;;;;;;89.85;41.18;;;;;;;0.83;83.49;100673.00;1690826;84;21628;-74
2020/12/11 06:26:01;;;;;;;88.72;39.78;;;;;;;0.83;83.44;100674.30;1690813;84;21245;-74
2020/12/11 06:28:48;;;;;;;93.22;40.70;;;;;;;0.82;83.54;100672.48;1690895;84;21844;-74
2020/12/11 06:31:20;;;;;;;99.65;39.70;;;;;;;0.85;83.57;100671.39;1690785;84;21167;-74
2020/12/11 06:33:54;;;;;;;85.50;38.28;;;;;;;0.87;83.61;100670.20;1693158;83;21700;-74
2020/12/11 06:36:22;;;;;;;84.22;37.50;;;;;;;0.90;83.69;100671.30;1712743;83;21207;-74
2020/12/11 06:38:55;;;;;;;84.60;38.63;;;;;;;0.92;83.71;100668.77;1712787;83;21175;-74
2020/12/11 06:41:36;;;;;;;92.42;38.60;;;;;;;0.92;83.71;100663.20;1712830;83;22957;-74
2020/12/11 06:44:15;;;;;;;78.85;37.23;;;;;;;0.90;83.69;100658.33;1727803;82;21601;-74
2020/12/11 06:46:42;;;;;;;79.67;36.40;;;;;;;0.90;83.78;100665.19;1729760;82;21151;-74
2020/12/11 06:49:14;;;;;;;87.65;38.23;;;;;;;0.90;83.72;100665.19;1729906;82;21514;-74
2020/12/11 06:51:53;;;;;;;82.88;39.40;;;;;;;0.88;83.74;100662.91;1730024;82;21126;-74
2020/12/11 06:54:25;;;;;;;89.17;40.08;;;;;;;0.86;83.66;100664.09;1729993;82;22902;-74
2020/12/11 06:56:56;;;;;;;81.28;39.10;;;;;;;0.90;83.83;100660.01;1729850;82;21190;-74
2020/12/11 06:59:27;;;;;;;76.28;38.60;;;;;;;0.92;83.96;100659.32;1729859;82;21241;-74
2020/12/11 07:02:15;;;;;;;87.40;39.73;;;;;;;0.94;83.90;100660.31;1729924;82;21276;-74
2020/12/11 07:04:46;;;;;;;83.17;39.33;;;;;;;0.95;83.95;100657.31;1729929;82;21159;-74
2020/12/11 07:07:13;;;;;;;76.15;34.58;;;;;;;0.95;83.90;100656.90;1730032;82;21839;-74
2020/12/11 07:09:46;;;;;;;83.22;36.58;;;;;;;0.92;83.77;100658.03;1729738;82;21158;-74
2020/12/11 07:12:16;;;;;;;75.30;37.33;;;;;;;0.89;83.81;100651.75;1730042;82;21202;-75
2020/12/11 07:14:46;;;;;;;81.25;37.38;;;;;;;0.86;83.90;100658.92;1729849;82;21604;-75
2020/12/11 07:17:30;;;;;;;79.07;37.08;;;;;;;0.86;84.01;100661.92;1729949;82;21166;-75
2020/12/11 07:19:58;;;;;;;76.30;36.53;;;;;;;0.88;84.08;100666.42;1729933;82;23783;-75
2020/12/11 07:22:25;;;;;;;83.78;38.70;;;;;;;0.85;84.03;100669.22;1726662;82;21593;-79
2020/12/11 07:24:52;;;;;;;82.15;39.83;;;;;;;0.85;84.21;100663.63;1698179;84;21215;-75
2020/12/11 07:27:22;;;;;;;86.92;42.60;;;;;;;0.87;84.24;100662.02;1693588;82;21475;-76
2020/12/11 07:29:53;;;;;;;95.07;44.45;;;;;;;0.88;84.29;100666.42;1698636;84;21219;-76
2020/12/11 07:32:21;;;;;;;91.47;43.52;;;;;;;0.89;84.26;100673.78;1694600;84;22788;-77
2020/12/11 07:34:57;;;;;;;85.07;42.90;;;;;;;0.89;84.28;100672.08;1693416;82;21239;-78
2020/12/11 07:37:40;;;;;;;90.62;43.02;;;;;;;0.96;84.34;100674.25;1812237;77;22523;-75
2020/12/11 07:43:04;;;;;;;81.10;41.33;;;;;;;1.00;84.44;100684.42;1764725;79;22790;-76
2020/12/11 07:45:32;;;;;;;94.60;41.48;;;;;;;0.97;84.38;100695.47;1741040;81;21223;-76
2020/12/11 07:48:01;;;;;;;79.22;40.45;;;;;;;0.99;84.35;100689.09;1744590;80;22707;-76
2020/12/11 07:50:34;;;;;;;83.10;40.20;;;;;;;0.97;84.26;100691.58;1743210;81;21260;-80
2020/12/11 07:55:49;;;;;;;80.83;41.02;;;;;;;1.03;84.31;100686.29;1856013;76;22804;-77
2020/12/11 07:58:21;;;;;;;94.15;43.35;;;;;;;0.97;84.35;100685.09;1825481;77;21594;-77
2020/12/11 08:00:48;;;;;;;98.70;45.15;;;;;;;0.99;84.34;100679.13;1794657;77;22509;-75
2020/12/11 08:05:54;;;;;;;97.95;48.28;;;;;;;1.08;84.54;100679.30;1857521;75;22832;-76
2020/12/11 08:08:28;;;;;;;92.37;45.23;;;;;;;1.05;84.52;100680.80;1827535;77;21152;-75
2020/12/11 08:11:00;;;;;;;88.47;39.95;;;;;;;1.08;84.56;100681.00;1822448;77;21952;-75
2020/12/11 08:13:35;;;;;;;94.37;45.67;;;;;;;1.08;84.52;100681.89;1826900;76;21272;-77
2020/12/11 08:16:08;;;;;;;89.25;42.10;;;;;;;1.08;84.46;100679.70;1828890;77;21159;-74
2020/12/11 08:18:41;;;;;;;89.90;43.52;;;;;;;1.11;84.56;100682.09;1829949;76;21151;-76
2020/12/11 08:21:11;;;;;;;83.40;39.27;;;;;;;1.15;84.57;100683.17;1824920;77;21110;-75
2020/12/11 08:23:44;;;;;;;85.40;39.80;;;;;;;1.18;84.54;100677.27;1828360;76;21877;-75
2020/12/11 08:29:07;;;;;;;85.62;36.70;;;;;;;1.31;84.65;100673.33;1864398;76;23394;-74
2020/12/11 08:34:33;;;;;;;72.00;35.58;;;;;;;1.35;84.56;100667.13;1790937;77;22838;-75
2020/12/11 08:37:06;;;;;;;74.53;35.33;;;;;;;1.28;84.39;100670.56;1753486;80;21495;-73
2020/12/11 08:39:35;;;;;;;70.07;35.53;;;;;;;1.24;84.42;100665.97;1722279;82;22862;-73
2020/12/11 08:42:17;;;;;;;77.25;35.28;;;;;;;1.25;84.55;100666.06;1717815;81;21648;-73
2020/12/11 08:47:38;;;;;;;78.97;36.57;;;;;;;1.27;84.64;100660.98;1700070;84;21219;-75
2020/12/11 08:52:38;;;;;;;69.90;33.75;;;;;;;1.36;84.79;100658.95;1854778;76;22355;-76
2020/12/11 08:57:54;;;;;;;70.78;34.30;;;;;;;1.42;84.80;100653.23;1778110;79;22913;-75
2020/12/11 09:00:31;;;;;;;75.15;35.00;;;;;;;1.41;84.85;100659.20;1750223;80;21208;-76
2020/12/11 09:03:03;;;;;;;69.82;34.50;;;;;;;1.47;84.92;100655.30;1717780;82;21631;-76
2020/12/11 09:05:31;;;;;;;69.05;36.08;;;;;;;1.49;84.78;100652.80;1749189;80;21153;-74
2020/12/11 09:08:02;;;;;;;74.67;37.10;;;;;;;1.54;84.81;100653.98;1748855;80;21208;-73
2020/12/11 09:10:32;;;;;;;78.95;37.17;;;;;;;1.54;84.70;100653.98;1749585;80;21221;-76
2020/12/11 09:13:01;;;;;;;84.95;38.38;;;;;;;1.55;84.56;100657.05;1716912;82;21812;-75
2020/12/11 09:15:36;;;;;;;78.28;36.30;;;;;;;1.58;84.68;100651.13;1719425;82;24459;-75
2020/12/11 09:18:12;;;;;;;81.28;35.48;;;;;;;1.61;84.67;100657.41;1684977;82;21161;-75
2020/12/11 09:20:44;;;;;;;77.30;37.93;;;;;;;1.62;84.64;100661.80;1719524;82;21287;-76
2020/12/11 09:23:16;;;;;;;79.12;37.05;;;;;;;1.64;84.72;100659.30;1717878;81;21229;-72
2020/12/11 09:25:46;;;;;;;79.05;39.23;;;;;;;1.65;84.76;100663.30;1750912;80;21262;-73
2020/12/11 09:28:16;;;;;;;82.10;39.03;;;;;;;1.67;84.77;100659.09;1753710;80;21891;-73
2020/12/11 09:30:43;;;;;;;102.78;41.50;;;;;;;1.70;84.79;100660.55;1751342;80;21214;-73
2020/12/11 09:33:18;;;;;;;86.97;39.58;;;;;;;1.74;84.83;100657.73;1752192;80;21168;-76
2020/12/11 09:35:46;;;;;;;79.07;39.70;;;;;;;1.78;84.78;100662.29;1750025;80;21258;-76
2020/12/11 09:38:17;;;;;;;96.10;42.78;;;;;;;1.82;84.89;100657.80;1750102;80;21220;-75
2020/12/11 09:40:49;;;;;;;102.75;44.65;;;;;;;1.89;84.89;100661.63;1750498;80;21827;-73
2020/12/11 09:51:52;;;;;;;93.20;45.98;;;;;;;2.01;84.74;100645.48;1795297;78;22380;-74
2020/12/11 09:54:23;;;;;;;87.60;39.30;;;;;;;1.92;84.75;100646.24;1772723;79;21187;-73
2020/12/11 09:56:48;;;;;;;92.25;40.00;;;;;;;1.92;84.79;100644.95;1775789;79;21915;-74
2020/12/11 09:59:22;;;;;;;90.45;44.42;;;;;;;1.90;84.77;100650.05;1765325;80;21196;-75
2020/12/11 10:01:59;;;;;;;93.50;45.35;;;;;;;1.87;84.83;100648.97;1765472;80;21632;-74
2020/12/11 10:04:19;;;;;;;86.08;43.40;;;;;;;1.86;84.87;100648.45;1762354;80;21236;-80
2020/12/11 10:06:46;;;;;;;101.42;45.73;;;;;;;1.84;84.79;100640.98;1761980;80;21164;-74
2020/12/11 10:09:20;;;;;;;96.35;43.87;;;;;;;1.81;84.90;100634.34;1761925;80;22870;-86
2020/12/11 10:11:52;;;;;;;98.82;44.05;;;;;;;1.86;85.06;100635.11;1759151;80;21208;-77
2020/12/11 10:17:04;;;;;;;86.67;42.23;;;;;;;1.91;85.14;100628.45;1765829;80;21430;-76
2020/12/11 10:19:31;;;;;;;95.28;42.62;;;;;;;1.97;85.23;100633.14;1762481;80;21211;-76
2020/12/11 10:22:02;;;;;;;91.12;42.67;;;;;;;1.98;85.07;100632.72;1757357;80;22000;-74
2020/12/11 10:24:29;;;;;;;101.20;40.40;;;;;;;1.98;85.06;100634.02;1762714;80;21219;-78
2020/12/11 10:29:39;;;;;;;99.10;42.73;;;;;;;1.96;84.91;100627.44;1876548;74;22711;-74
2020/12/11 10:32:06;;;;;;;106.17;44.60;;;;;;;1.88;84.83;100624.81;1848737;77;21154;-74
2020/12/11 10:34:36;;;;;;;96.72;42.88;;;;;;;1.89;84.97;100617.09;1774905;80;21886;-76
2020/12/11 10:37:11;;;;;;;92.10;42.08;;;;;;;1.90;85.04;100607.22;1807542;79;21207;-74
2020/12/11 10:39:42;;;;;;;103.67;44.70;;;;;;;1.96;85.16;100610.56;1789825;79;21282;-75
2020/12/11 10:42:12;;;;;;;109.15;44.55;;;;;;;1.99;85.10;100608.16;1778024;80;22542;-76
2020/12/11 10:44:46;;;;;;;106.15;43.98;;;;;;;1.99;84.96;100613.34;1786756;79;21230;-75
2020/12/11 10:47:15;;;;;;;100.62;45.52;;;;;;;2.00;84.95;100608.62;1774871;80;21897;-75
2020/12/11 10:49:44;;;;;;;93.60;40.38;;;;;;;2.00;84.97;100607.33;1774254;80;21621;-76
2020/12/11 10:52:11;;;;;;;108.05;47.70;;;;;;;2.03;84.94;100612.71;1810072;78;21632;-75
2020/12/11 10:54:39;;;;;;;111.30;47.53;;;;;;;2.03;84.91;100607.52;1776358;79;21160;-75
2020/12/11 10:57:06;;;;;;;100.90;45.45;;;;;;;2.06;84.87;100610.67;1777761;80;21152;-76
2020/12/11 10:59:33;;;;;;;102.85;46.42;;;;;;;2.08;84.87;100614.25;1776531;80;21955;-74
2020/12/11 11:02:00;;;;;;;108.78;49.55;;;;;;;2.08;84.81;100608.68;1791795;79;21205;-74
2020/12/11 11:04:27;;;;;;;108.17;51.08;;;;;;;2.14;84.99;100605.12;1786230;79;21218;-74
2020/12/11 11:18:01;;;;;;;98.55;48.10;;;;;;;2.43;84.78;100586.77;1844406;76;21637;-75
2020/12/11 11:23:21;;;;;;;101.25;51.75;;;;;;;2.50;84.57;100587.60;1844007;76;21158;-75
2020/12/11 11:28:29;;;;;;;103.55;51.90;;;;;;;2.49;84.42;100580.19;1846941;76;21210;-73
2020/12/11 11:30:56;;;;;;;98.55;50.70;;;;;;;2.47;84.41;100593.92;1840347;76;21183;-75
2020/12/11 11:33:26;;;;;;;108.67;51.75;;;;;;;2.48;84.45;100590.52;1841345;76;21948;-74
2020/12/11 11:35:53;;;;;;;119.70;54.83;;;;;;;2.51;84.46;100591.55;1844256;76;21216;-74
2020/12/11 11:38:20;;;;;;;125.42;56.68;;;;;;;2.57;84.48;100599.20;1840580;76;21250;-74
2020/12/11 11:40:49;;;;;;;106.65;53.30;;;;;;;2.65;84.57;100591.44;1844993;76;21228;-74
2020/12/11 11:43:24;;;;;;;101.12;52.50;;;;;;;2.72;84.49;100590.55;1843817;76;21751;-74
2020/12/11 11:45:51;;;;;;;113.80;55.03;;;;;;;2.78;84.32;100593.89;1845651;76;22611;-75
2020/12/11 11:48:18;;;;;;;100.02;51.77;;;;;;;2.83;84.35;100595.00;1818565;76;21198;-73
2020/12/11 11:50:54;;;;;;;108.32;55.10;;;;;;;2.83;84.12;100585.02;1840214;76;21188;-73
2020/12/11 11:53:21;;;;;;;98.15;51.42;;;;;;;2.84;84.14;100586.41;1844258;76;21182;-73
2020/12/11 11:55:47;;;;;;;98.45;50.60;;;;;;;2.88;84.14;100576.66;1845320;76;21183;-73
2020/12/11 11:58:16;;;;;;;101.70;49.83;;;;;;;2.92;83.95;100582.91;1843190;76;21953;-75
2020/12/11 12:00:42;;;;;;;102.75;51.25;;;;;;;2.90;83.87;100580.64;1844138;76;21164;-75
2020/12/11 12:03:09;;;;;;;104.25;51.63;;;;;;;2.89;83.74;100582.36;1841171;76;21559;-76
2020/12/11 12:05:37;;;;;;;106.25;54.53;;;;;;;2.87;83.68;100577.48;1847878;76;21211;-75
2020/12/11 12:08:04;;;;;;;102.45;52.10;;;;;;;2.87;83.65;100580.08;1840307;76;21155;-75
2020/12/11 12:10:32;;;;;;;102.90;51.35;;;;;;;2.85;83.49;100573.00;1842036;76;21483;-75
2020/12/11 12:12:59;;;;;;;101.90;51.00;;;;;;;2.84;83.48;100581.20;1841630;76;21234;-76
2020/12/11 12:15:28;;;;;;;105.95;52.55;;;;;;;2.89;83.53;100576.23;1839212;76;21573;-76
2020/12/11 12:18:02;;;;;;;94.87;44.90;;;;;;;2.91;83.55;100567.73;1846758;76;21258;-76
2020/12/11 12:20:42;;;;;;;114.67;55.15;;;;;;;2.96;83.46;100574.87;1844091;76;21115;-75
2020/12/11 12:28:31;;;;;;;114.72;53.78;;;;;;;2.97;83.37;100566.27;1842383;76;21174;-74
2020/12/11 12:30:51;;;;;;;114.50;54.40;;;;;;;2.98;83.32;100575.42;1841491;76;21202;-73
2020/12/11 12:38:32;;;;;;;114.72;53.52;;;;;;;2.97;83.16;100559.77;1843923;76;21218;-75
2020/12/11 12:42:18;;;;;;;114.75;53.98;;;;;;;2.93;83.09;100566.52;1840331;76;21188;-73